Terminal Aerodrome Forecast
Issued by NWS Wakefield, VA

Home | Current Version | Previous Version | Text Only | Print | Product List | Glossary On
Versions: 1 2 3 4 5 6 7 8 9 10 11 12 13 14 15
000
FTUS41 KAKQ 061128
TAFECG
TAF
KECG 061128Z 0612/0712 04011KT 6SM -RA BR OVC070
     FM061500 06015G25KT 3SM RA BR OVC025
     FM061700 06015G25KT 2SM RA BR OVC007
     FM062300 34008KT P6SM VCSH OVC004=

USA.gov is the U.S. government's official web portal to all federal, state and local government web resources and services.